Thursday, July 31, 2014, 3:36 PM EDT

KESN, Easton / Newman Field

Location: Easton, MD, United States Lat: 38.8
Local Time: 3:36 PM EDT (19:36 GMT) Lon: -76.067
Time Zone: US/Eastern Elev: 72 ft

Show me the last for .
Show Decoded

2014-07-31 14:50 METAR KESN 311850Z 22008KT 10SM SCT060 30/17 A3014 =
2014-07-31 13:45 METAR KESN 311745Z 22010KT 10SM SCT060 29/15 A3014 =
2014-07-31 11:45 METAR KESN 311545Z 26008KT 10SM SCT060 27/18 A3016 =
2014-07-31 10:50 METAR KESN 311450Z 22011KT 10SM SCT060 27/19 A3016 =
2014-07-31 09:50 METAR KESN 311350Z 22009KT 10SM SKC 25/19 A3016 =
2014-07-31 08:50 METAR KESN 311250Z 19005KT 10SM SKC 24/20 A3015 =
2014-07-31 07:50 METAR KESN 311150Z 00000KT 10SM SKC 22/19 A3014 =
2014-07-31 06:50 METAR KESN 311050Z 00000KT 10SM SKC 19/18 A3013 =
2014-07-31 06:25 METAR KESN 311025Z AUTO 00000KT 10SM CLR 19/18 A3013 RMK AO2 T01900175 =
2014-07-31 06:09 METAR KESN 311009Z AUTO 00000KT 10SM CLR 18/17 A3013 =
2014-07-31 06:06 METAR KESN 311009Z AUTO 00000KT 10SM CLR 18/17 A3013 RMK AO2 T01840170 =
2014-07-31 05:50 METAR KESN 310950Z 00000KT 10SM SKC 18/17 A3012 =
2014-07-31 05:49 METAR KESN 310949Z AUTO 00000KT 10SM CLR 19/17 A3012 RMK AO2 T01880169 =
2014-07-31 05:28 METAR KESN 310929Z AUTO 00000KT 10SM CLR 19/17 A3012 =
2014-07-31 05:24 METAR KESN 310929Z AUTO 00000KT 10SM CLR 19/17 A3012 RMK AO2 T01900166 =
2014-07-31 05:09 METAR KESN 310909Z AUTO 00000KT 10SM CLR 19/17 A3011 =
2014-07-31 04:49 METAR KESN 310849Z AUTO 00000KT 10SM CLR 18/16 A3011 RMK AO2 T01820162 =
2014-07-31 04:27 METAR KESN 310828Z AUTO 00000KT 10SM CLR 18/16 A3011 =
2014-07-31 04:25 METAR KESN 310828Z AUTO 00000KT 10SM CLR 18/16 A3011 RMK AO2 T01820160 =
2014-07-31 04:08 METAR KESN 310808Z AUTO 00000KT 10SM CLR 18/16 A3011 RMK AO2 T01820157 =
2014-07-31 03:27 METAR KESN 310728Z AUTO 00000KT 10SM CLR 18/16 A3011 =
2014-07-31 03:24 METAR KESN 310728Z AUTO 00000KT 10SM CLR 18/16 A3011 RMK AO2 T01820155 =
2014-07-31 03:08 METAR KESN 310708Z AUTO 00000KT 10SM CLR 19/16 A3011 RMK AO2 T01860156 =
2014-07-31 02:48 METAR KESN 310648Z AUTO 00000KT 10SM CLR 19/16 A3011 RMK AO2 T01850155 =
2014-07-31 02:28 METAR KESN 310628Z AUTO 00000KT 10SM CLR 19/16 A3011 =
2014-07-31 02:26 METAR KESN 310628Z AUTO 00000KT 10SM CLR 19/16 A3011 RMK AO2 T01870155 =
2014-07-31 02:08 METAR KESN 310608Z AUTO 00000KT 10SM CLR 19/16 A3011 RMK AO2 T01910155 =
2014-07-31 01:48 METAR KESN 310548Z AUTO 00000KT 10SM CLR 19/16 A3011 =
2014-07-31 01:28 METAR KESN 310528Z AUTO 00000KT 10SM CLR 19/15 A3011 RMK AO2 T01920153 =
2014-07-31 01:08 METAR KESN 310508Z AUTO 00000KT 10SM CLR 19/15 A3011 =
2014-07-31 00:48 METAR KESN 310448Z AUTO 00000KT 10SM CLR 19/15 A3011 RMK AO2 T01910153 =
2014-07-31 00:26 METAR KESN 310428Z AUTO 00000KT 10SM CLR 20/15 A3011 =
2014-07-31 00:26 METAR KESN 310428Z AUTO 00000KT 10SM CLR 20/15 A3011 RMK AO2 T02000151 =
2014-07-31 00:08 METAR KESN 310408Z AUTO 00000KT 10SM CLR 20/15 A3010 =
2014-07-30 23:48 METAR KESN 310348Z AUTO 00000KT 10SM CLR 20/15 A3010 RMK AO2 T02020150 =
2014-07-30 23:26 METAR KESN 310328Z AUTO 00000KT 10SM CLR 20/15 A3010 =
2014-07-30 23:26 METAR KESN 310328Z AUTO 00000KT 10SM CLR 20/15 A3010 RMK AO2 T02000146 =
2014-07-30 23:08 METAR KESN 310308Z AUTO 00000KT 10SM CLR 21/15 A3010 RMK AO2 T02050145 =
2014-07-30 20:45 METAR KESN 310045Z 00000KT 10SM SKC 22/14 A3009 =
2014-07-30 19:50 METAR KESN 302350Z 00000KT 10SM SKC 24/14 A3009 =
2014-07-30 18:50 METAR KESN 302250Z 24003KT 10SM SKC 25/13 A3008 =
2014-07-30 17:50 METAR KESN 302150Z 24004KT 10SM SKC 26/12 A3008 =
2014-07-30 16:55 METAR KESN 302055Z 21003KT 10SM SKC 26/10 A3008 =
2014-07-30 15:50 METAR KESN 301950Z 00000KT 10SM SCT040 26/11 A3009 =

Support USWX by starting your Amazon purchase here.